createdAt,value
2023-01-17T00:00:35.062Z,1.20
2023-01-17T00:03:02.005Z,1.30
2023-01-17T00:05:47.546Z,1.10
2023-01-17T00:08:32.861Z,1.30
2023-01-17T00:10:59.761Z,1.70
2023-01-17T00:13:27.250Z,1.73
2023-01-17T00:15:53.940Z,1.90
2023-01-17T00:18:20.707Z,1.60
2023-01-17T00:21:06.058Z,1.07
2023-01-17T00:24:08.082Z,1.13
2023-01-17T00:26:34.816Z,1.30
2023-01-17T00:29:01.860Z,1.33
2023-01-17T00:31:28.505Z,1.20
2023-01-17T00:33:55.334Z,1.13
2023-01-17T00:36:21.994Z,1.20
2023-01-17T00:38:48.633Z,1.10
2023-01-17T00:41:15.654Z,1.23
2023-01-17T00:44:01.099Z,1.33
2023-01-17T00:46:46.450Z,1.30
2023-01-17T00:49:32.131Z,1.33
2023-01-17T00:52:17.420Z,1.10
2023-01-17T00:55:02.779Z,1.13
2023-01-17T00:57:48.371Z,1.30
2023-01-17T01:00:34.249Z,1.50
2023-01-17T01:03:19.758Z,1.10
2023-01-17T01:06:05.098Z,1.10
2023-01-17T01:08:50.500Z,1.40
2023-01-17T01:11:38.467Z,1.07
2023-01-17T01:14:25.771Z,1.00
2023-01-17T01:17:11.213Z,1.20
2023-01-17T01:19:56.675Z,1.03
2023-01-17T01:22:41.996Z,1.30
2023-01-17T01:25:27.354Z,1.50
2023-01-17T01:28:21.657Z,1.50
2023-01-17T01:31:07.140Z,1.20
2023-01-17T01:33:33.827Z,1.47
2023-01-17T01:36:00.487Z,1.40
2023-01-17T01:38:27.242Z,1.17
2023-01-17T01:40:56.671Z,1.60
2023-01-17T01:43:52.579Z,1.23
2023-01-17T01:46:31.277Z,1.60
2023-01-17T01:49:05.159Z,1.13
2023-01-17T01:51:51.228Z,1.40
2023-01-17T01:54:22.493Z,1.40
2023-01-17T01:56:51.671Z,1.20
2023-01-17T01:59:21.224Z,1.07
2023-01-17T02:01:51.738Z,1.40
2023-01-17T02:04:19.966Z,1.20
2023-01-17T02:06:51.693Z,1.03
2023-01-17T02:09:19.547Z,1.30
2023-01-17T02:11:48.908Z,0.90
2023-01-17T02:14:17.801Z,0.83
2023-01-17T02:17:08.904Z,1.37
2023-01-17T02:20:05.597Z,1.17
2023-01-17T02:23:00.159Z,1.40
2023-01-17T02:26:01.545Z,1.53
2023-01-17T02:28:56.043Z,1.30
2023-01-17T02:31:55.344Z,1.00
2023-01-17T02:34:28.703Z,0.93
2023-01-17T02:37:07.905Z,1.80
2023-01-17T02:39:49.350Z,1.10
2023-01-17T02:42:19.692Z,1.10
2023-01-17T02:44:46.318Z,1.10
2023-01-17T02:47:24.088Z,1.17
2023-01-17T02:49:54.448Z,0.97
2023-01-17T02:52:42.615Z,1.13
2023-01-17T02:55:30.626Z,1.10
2023-01-17T02:58:08.586Z,1.20
2023-01-17T03:01:12.745Z,1.07
2023-01-17T03:04:04.019Z,1.10
2023-01-17T03:06:36.701Z,1.07
2023-01-17T03:09:04.659Z,1.00
2023-01-17T03:11:31.512Z,0.90
2023-01-17T03:13:58.188Z,1.10
2023-01-17T03:16:27.941Z,0.90
2023-01-17T03:18:55.196Z,1.30
2023-01-17T03:21:23.512Z,1.30
2023-01-17T03:23:50.332Z,1.50
2023-01-17T03:26:17.220Z,1.30
2023-01-17T03:28:43.890Z,1.20
2023-01-17T03:31:14.594Z,1.03
2023-01-17T03:33:41.367Z,1.00
2023-01-17T03:36:08.292Z,1.17
2023-01-17T03:38:34.977Z,0.73
2023-01-17T03:41:01.773Z,1.00
2023-01-17T03:43:28.569Z,1.00
2023-01-17T03:46:03.380Z,0.80
2023-01-17T03:48:30.095Z,0.90
2023-01-17T03:50:56.775Z,1.10
2023-01-17T03:53:23.744Z,1.03
2023-01-17T03:55:50.401Z,1.00
2023-01-17T03:58:17.224Z,1.10
2023-01-17T04:00:44.043Z,0.90
2023-01-17T04:03:10.686Z,0.80
2023-01-17T04:05:37.419Z,0.60
2023-01-17T04:08:04.521Z,0.80
2023-01-17T04:10:31.161Z,1.00
2023-01-17T04:12:57.831Z,0.80
2023-01-17T04:15:24.496Z,0.80
2023-01-17T04:17:51.317Z,0.80
2023-01-17T04:20:33.385Z,0.80
2023-01-17T04:23:00.235Z,1.27
2023-01-17T04:25:27.572Z,1.10
2023-01-17T04:27:54.525Z,1.67
2023-01-17T04:30:21.635Z,1.27
2023-01-17T04:32:48.334Z,1.20
2023-01-17T04:35:15.215Z,0.90
2023-01-17T04:37:41.907Z,0.80
2023-01-17T04:40:09.575Z,0.70
2023-01-17T04:42:36.329Z,1.17
2023-01-17T04:45:03.427Z,1.07
2023-01-17T04:47:30.378Z,0.90
2023-01-17T04:49:57.021Z,0.80
2023-01-17T04:52:23.637Z,0.70
2023-01-17T04:54:50.434Z,1.20
2023-01-17T04:57:18.110Z,1.10
2023-01-17T04:59:45.537Z,1.20
2023-01-17T05:02:13.067Z,0.80
2023-01-17T05:04:40.414Z,1.70
2023-01-17T05:07:07.316Z,1.10
2023-01-17T05:09:33.991Z,1.17
2023-01-17T05:12:00.674Z,1.27
2023-01-17T05:14:27.437Z,0.70
2023-01-17T05:16:54.654Z,0.80
2023-01-17T05:19:21.925Z,1.67
2023-01-17T05:21:48.589Z,0.97
2023-01-17T05:24:15.420Z,0.87
2023-01-17T05:26:43.232Z,0.90
2023-01-17T05:29:10.644Z,1.37
2023-01-17T05:31:37.843Z,1.00
2023-01-17T05:34:04.754Z,1.03
2023-01-17T05:36:31.415Z,1.23
2023-01-17T05:38:58.145Z,1.27
2023-01-17T05:41:24.766Z,0.90
2023-01-17T05:43:51.434Z,1.50
2023-01-17T05:46:18.385Z,1.27
2023-01-17T05:48:45.077Z,1.50
2023-01-17T05:51:11.775Z,1.60
2023-01-17T05:53:43.586Z,1.30
2023-01-17T05:56:10.315Z,1.20
2023-01-17T05:58:37.048Z,1.30
2023-01-17T06:01:03.712Z,1.40
2023-01-17T06:03:30.350Z,1.40
2023-01-17T06:05:57.037Z,1.37
2023-01-17T06:08:23.739Z,1.00
2023-01-17T06:10:50.373Z,1.10
2023-01-17T06:13:20.970Z,1.60
2023-01-17T06:15:48.178Z,1.00
2023-01-17T06:18:17.338Z,1.17
2023-01-17T06:20:44.674Z,1.40
2023-01-17T06:23:13.392Z,1.60
2023-01-17T06:25:45.465Z,1.23
2023-01-17T06:28:14.753Z,1.80
2023-01-17T06:30:42.496Z,1.33
2023-01-17T06:33:09.578Z,0.90
2023-01-17T06:35:38.315Z,1.27
2023-01-17T06:38:05.010Z,1.30
2023-01-17T06:40:31.697Z,1.43
2023-01-17T06:43:02.884Z,1.40
2023-01-17T06:45:31.613Z,1.40
2023-01-17T06:47:59.359Z,1.30
2023-01-17T06:50:26.298Z,1.70
2023-01-17T06:53:00.379Z,1.40
2023-01-17T06:55:28.939Z,1.33
2023-01-17T06:57:57.034Z,1.80
2023-01-17T07:00:24.220Z,1.43
2023-01-17T07:02:51.804Z,1.50
2023-01-17T07:05:19.632Z,1.60
2023-01-17T07:07:47.018Z,1.27
2023-01-17T07:10:15.669Z,1.70
2023-01-17T07:12:42.418Z,1.80
2023-01-17T07:15:09.831Z,1.57
2023-01-17T07:17:36.664Z,1.67
2023-01-17T07:20:03.632Z,2.10
2023-01-17T07:22:30.387Z,2.27
2023-01-17T07:24:58.856Z,1.70
2023-01-17T07:27:27.913Z,1.80
2023-01-17T07:29:54.690Z,1.70
2023-01-17T07:32:21.581Z,2.13
2023-01-17T07:34:48.295Z,1.67
2023-01-17T07:37:15.418Z,2.23
2023-01-17T07:39:42.583Z,2.43
2023-01-17T07:42:09.384Z,3.17
2023-01-17T07:44:36.165Z,1.77
2023-01-17T07:47:04.352Z,1.30
2023-01-17T07:49:31.054Z,1.33
2023-01-17T07:51:57.697Z,1.57
2023-01-17T07:54:24.373Z,1.47
2023-01-17T07:56:51.049Z,1.27
2023-01-17T07:59:18.241Z,1.47
2023-01-17T08:01:45.043Z,1.47
2023-01-17T08:04:11.900Z,1.43
2023-01-17T08:06:42.157Z,1.30
2023-01-17T08:09:08.780Z,1.93
2023-01-17T08:11:35.398Z,1.80
2023-01-17T08:14:02.048Z,1.90
2023-01-17T08:16:29.860Z,2.00
2023-01-17T08:18:57.038Z,1.97
2023-01-17T08:21:24.134Z,1.47
2023-01-17T08:23:52.707Z,1.77
2023-01-17T08:26:22.522Z,1.60
2023-01-17T08:29:03.246Z,1.80
2023-01-17T08:31:32.846Z,1.63
2023-01-17T08:33:59.549Z,1.40
2023-01-17T08:36:27.765Z,1.27
2023-01-17T08:38:55.486Z,1.40
2023-01-17T08:41:23.831Z,1.30
2023-01-17T08:43:52.070Z,1.17
2023-01-17T08:46:19.484Z,1.50
2023-01-17T08:48:46.630Z,1.10
2023-01-17T08:51:13.536Z,1.70
2023-01-17T08:53:43.743Z,1.40
2023-01-17T08:56:10.493Z,1.23
2023-01-17T08:58:37.140Z,1.27
2023-01-17T09:01:06.597Z,1.30
2023-01-17T09:03:34.843Z,1.90
2023-01-17T09:06:09.720Z,1.70
2023-01-17T09:08:37.484Z,1.20
2023-01-17T09:11:12.123Z,1.40
2023-01-17T09:13:39.347Z,1.40
2023-01-17T09:16:06.550Z,1.70
2023-01-17T09:18:34.415Z,1.37
2023-01-17T09:21:16.712Z,1.40
2023-01-17T09:23:43.943Z,1.47
2023-01-17T09:26:36.992Z,1.50
2023-01-17T09:29:03.871Z,1.60
2023-01-17T09:31:30.661Z,1.77
2023-01-17T09:33:58.824Z,2.07
2023-01-17T09:36:31.862Z,1.80
2023-01-17T09:38:59.343Z,1.33
2023-01-17T09:41:31.221Z,1.90
2023-01-17T09:44:06.546Z,1.50
2023-01-17T09:46:39.932Z,1.60
2023-01-17T09:49:21.812Z,1.17
2023-01-17T09:51:48.676Z,1.23
2023-01-17T09:54:22.950Z,2.20
2023-01-17T09:57:01.957Z,2.40
2023-01-17T09:59:40.250Z,1.20
2023-01-17T10:02:39.116Z,1.70
2023-01-17T10:05:20.754Z,0.93
2023-01-17T10:08:25.825Z,0.90
2023-01-17T10:11:13.914Z,0.70
2023-01-17T10:13:56.175Z,1.00
2023-01-17T10:16:53.238Z,1.33
2023-01-17T10:19:47.276Z,0.90
2023-01-17T10:22:25.803Z,0.80
2023-01-17T10:25:01.443Z,1.00
2023-01-17T10:27:34.015Z,0.90
2023-01-17T10:30:22.946Z,1.03
2023-01-17T10:32:50.641Z,1.70
2023-01-17T10:35:21.934Z,1.10
2023-01-17T10:37:52.315Z,0.93
2023-01-17T10:40:31.660Z,1.03
2023-01-17T10:43:10.023Z,1.20
2023-01-17T10:45:41.537Z,1.00
2023-01-17T10:48:23.243Z,0.80
2023-01-17T10:51:02.094Z,1.10
2023-01-17T10:53:50.854Z,1.20
2023-01-17T10:56:23.572Z,0.80
2023-01-17T10:58:57.850Z,1.20
2023-01-17T11:01:26.420Z,0.77
2023-01-17T11:03:55.399Z,1.00
2023-01-17T11:06:24.862Z,0.97
2023-01-17T11:08:59.966Z,1.00
2023-01-17T11:11:32.308Z,0.80
2023-01-17T11:14:04.720Z,0.80
2023-01-17T11:16:32.665Z,0.73
2023-01-17T11:19:27.950Z,2.80
2023-01-17T11:22:01.797Z,1.50
2023-01-17T11:24:36.478Z,1.27
2023-01-17T11:27:06.171Z,1.10
2023-01-17T11:29:39.040Z,1.03
2023-01-17T11:32:31.007Z,0.80
2023-01-17T11:35:12.657Z,0.80
2023-01-17T11:37:41.584Z,1.23
2023-01-17T11:40:30.144Z,1.00
2023-01-17T11:43:03.554Z,0.90
2023-01-17T11:45:32.791Z,1.10
2023-01-17T11:48:08.843Z,1.20
2023-01-17T11:50:57.898Z,0.90
2023-01-17T11:53:30.183Z,1.23
2023-01-17T11:56:23.158Z,0.97
2023-01-17T11:58:51.208Z,0.93
2023-01-17T12:01:31.982Z,0.87
2023-01-17T12:04:40.145Z,0.80
2023-01-17T12:07:45.039Z,1.53
2023-01-17T12:10:18.748Z,0.83
2023-01-17T12:13:33.621Z,0.83
2023-01-17T12:16:31.859Z,0.80
2023-01-17T12:19:07.994Z,1.20
2023-01-17T12:21:55.000Z,0.87
2023-01-17T12:24:46.360Z,1.10
2023-01-17T12:27:22.894Z,1.00
2023-01-17T12:29:58.970Z,1.23
2023-01-17T12:32:31.270Z,0.80
2023-01-17T12:35:24.397Z,1.23
2023-01-17T12:38:04.711Z,1.10
2023-01-17T12:40:37.873Z,1.13
2023-01-17T12:43:24.328Z,0.90
2023-01-17T12:45:52.671Z,1.20
2023-01-17T12:48:21.418Z,1.40
2023-01-17T12:51:05.438Z,1.20
2023-01-17T12:53:51.039Z,1.40
2023-01-17T12:56:41.906Z,1.10
2023-01-17T12:59:35.263Z,1.30
2023-01-17T13:02:12.303Z,1.40
2023-01-17T13:04:57.047Z,1.30
2023-01-17T13:07:37.883Z,1.87
2023-01-17T13:10:21.074Z,1.80
2023-01-17T13:12:50.215Z,2.00
2023-01-17T13:15:24.835Z,1.30
2023-01-17T13:18:04.581Z,1.73
2023-01-17T13:20:40.624Z,1.40
2023-01-17T13:23:33.893Z,1.20
2023-01-17T13:26:02.125Z,1.00
2023-01-17T13:28:44.019Z,1.47
2023-01-17T13:31:25.205Z,1.17
2023-01-17T13:34:04.959Z,1.10
2023-01-17T13:36:54.612Z,1.10
2023-01-17T13:39:33.519Z,1.10
2023-01-17T13:42:17.938Z,1.47
2023-01-17T13:44:46.367Z,1.80
2023-01-17T13:47:19.250Z,1.10
2023-01-17T13:49:49.499Z,1.40
2023-01-17T13:52:19.244Z,1.13
2023-01-17T13:54:57.970Z,1.80
2023-01-17T13:57:27.331Z,1.50
2023-01-17T13:59:57.906Z,1.83
2023-01-17T14:02:33.828Z,1.10
2023-01-17T14:05:09.253Z,1.30
2023-01-17T14:07:43.921Z,1.43
2023-01-17T14:10:40.908Z,1.67
2023-01-17T14:13:34.970Z,1.57
2023-01-17T14:16:05.437Z,1.77
2023-01-17T14:18:33.729Z,1.77
2023-01-17T14:21:25.341Z,1.67
2023-01-17T14:23:56.119Z,1.53
2023-01-17T14:26:31.067Z,2.07
2023-01-17T14:28:59.895Z,1.40
2023-01-17T14:31:28.118Z,1.80
2023-01-17T14:33:54.779Z,1.30
2023-01-17T14:36:32.441Z,1.53
2023-01-17T14:38:59.144Z,1.47
2023-01-17T14:41:28.868Z,1.20
2023-01-17T14:43:56.690Z,1.30
2023-01-17T14:46:34.261Z,4.77
2023-01-17T14:49:24.125Z,2.00
2023-01-17T14:52:02.153Z,1.60
2023-01-17T14:54:29.594Z,3.10
2023-01-17T14:57:22.739Z,2.23
2023-01-17T14:59:49.422Z,3.33
2023-01-17T15:02:18.574Z,2.00
2023-01-17T15:04:53.397Z,2.10
2023-01-17T15:07:20.455Z,1.10
2023-01-17T15:09:47.247Z,1.13
2023-01-17T15:12:14.659Z,1.80
2023-01-17T15:14:44.752Z,1.30
2023-01-17T15:17:18.700Z,1.70
2023-01-17T15:19:50.146Z,1.40
2023-01-17T15:22:18.781Z,1.37
2023-01-17T15:24:48.007Z,1.30
2023-01-17T15:27:16.961Z,1.23
2023-01-17T15:29:45.611Z,1.30
2023-01-17T15:32:32.642Z,1.37
2023-01-17T15:35:02.539Z,1.70
2023-01-17T15:37:36.260Z,1.20
2023-01-17T15:40:17.217Z,1.67
2023-01-17T15:42:46.860Z,1.97
2023-01-17T15:45:19.927Z,1.80
2023-01-17T15:47:46.953Z,1.60
2023-01-17T15:50:27.834Z,1.60
2023-01-17T15:53:02.489Z,2.20
2023-01-17T15:55:34.920Z,1.70
2023-01-17T15:58:02.438Z,1.50
2023-01-17T16:00:39.179Z,1.33
2023-01-17T16:03:26.753Z,1.63
2023-01-17T16:05:56.875Z,1.37
2023-01-17T16:08:23.468Z,1.87
2023-01-17T16:10:54.973Z,1.80
2023-01-17T16:13:21.996Z,1.30
2023-01-17T16:15:48.937Z,1.40
2023-01-17T16:18:24.121Z,2.10
2023-01-17T16:21:00.244Z,1.43
2023-01-17T16:23:28.478Z,1.77
2023-01-17T16:25:55.197Z,3.20
2023-01-17T16:28:23.042Z,2.10
2023-01-17T16:30:49.759Z,1.37
2023-01-17T16:33:16.509Z,1.40
2023-01-17T16:35:44.232Z,1.67
2023-01-17T16:38:14.136Z,1.40
2023-01-17T16:40:45.261Z,1.90
2023-01-17T16:43:14.413Z,1.47
2023-01-17T16:45:53.144Z,1.80
2023-01-17T16:48:20.709Z,1.83
2023-01-17T16:50:50.852Z,1.70
2023-01-17T16:53:24.337Z,2.80
2023-01-17T16:55:54.370Z,2.20
2023-01-17T16:58:21.128Z,3.60
2023-01-17T17:00:47.913Z,2.27
2023-01-17T17:03:18.842Z,1.90
2023-01-17T17:05:54.099Z,2.27
2023-01-17T17:08:20.711Z,2.10
2023-01-17T17:10:47.389Z,1.70
2023-01-17T17:13:14.057Z,1.60
2023-01-17T17:15:43.970Z,1.57
2023-01-17T17:18:15.963Z,1.70
2023-01-17T17:20:43.236Z,1.90
2023-01-17T17:23:10.399Z,2.50
2023-01-17T17:25:38.036Z,1.90
2023-01-17T17:28:06.276Z,2.20
2023-01-17T17:30:33.516Z,1.93
2023-01-17T17:33:00.303Z,2.23
2023-01-17T17:35:27.008Z,2.17
2023-01-17T17:37:54.406Z,1.80
2023-01-17T17:40:21.337Z,3.00
2023-01-17T17:42:47.961Z,2.77
2023-01-17T17:45:14.635Z,2.37
2023-01-17T17:47:41.270Z,1.87
2023-01-17T17:50:08.671Z,3.07
2023-01-17T17:52:35.296Z,2.00
2023-01-17T17:55:02.124Z,2.20
2023-01-17T17:57:28.775Z,1.67
2023-01-17T17:59:56.808Z,2.07
2023-01-17T18:02:23.570Z,1.30
2023-01-17T18:04:50.371Z,1.47
2023-01-17T18:07:17.059Z,1.87
2023-01-17T18:09:43.686Z,2.23
2023-01-17T18:12:10.421Z,2.67
2023-01-17T18:14:37.192Z,2.93
2023-01-17T18:17:03.852Z,2.77
2023-01-17T18:19:30.509Z,3.40
2023-01-17T18:21:58.191Z,5.33
2023-01-17T18:24:25.299Z,4.20
2023-01-17T18:26:56.063Z,4.00
2023-01-17T18:29:23.978Z,3.43
2023-01-17T18:31:51.990Z,2.83
2023-01-17T18:34:23.763Z,3.00
2023-01-17T18:36:51.241Z,2.90
2023-01-17T18:39:20.632Z,3.20
2023-01-17T18:41:48.174Z,3.27
2023-01-17T18:44:14.936Z,3.70
2023-01-17T18:46:42.369Z,3.10
2023-01-17T18:49:14.821Z,2.90
2023-01-17T18:51:42.872Z,2.30
2023-01-17T18:54:09.541Z,2.40
2023-01-17T18:56:36.330Z,2.10
2023-01-17T18:59:06.221Z,1.70
2023-01-17T19:01:35.747Z,2.03
2023-01-17T19:04:05.349Z,3.17
2023-01-17T19:06:35.322Z,2.30
2023-01-17T19:09:02.668Z,3.13
2023-01-17T19:11:29.480Z,2.57
2023-01-17T19:13:56.528Z,2.80
2023-01-17T19:16:28.018Z,2.77
2023-01-17T19:18:56.867Z,2.73
2023-01-17T19:21:26.214Z,3.10
2023-01-17T19:23:54.511Z,3.50
2023-01-17T19:26:23.190Z,2.80
2023-01-17T19:28:50.952Z,2.50
2023-01-17T19:31:22.164Z,2.53
2023-01-17T19:33:51.915Z,2.40
2023-01-17T19:36:21.992Z,2.50
2023-01-17T19:39:03.066Z,2.60
2023-01-17T19:41:31.945Z,3.60
2023-01-17T19:44:01.268Z,3.03
2023-01-17T19:46:28.397Z,2.90
2023-01-17T19:48:56.505Z,2.70
2023-01-17T19:51:24.956Z,2.83
2023-01-17T19:53:53.614Z,3.13
2023-01-17T19:56:22.784Z,2.47
2023-01-17T19:58:49.778Z,3.73
2023-01-17T20:01:19.308Z,3.07
2023-01-17T20:03:46.831Z,4.50
2023-01-17T20:06:15.736Z,3.40
2023-01-17T20:08:43.546Z,4.33
2023-01-17T20:11:15.806Z,4.60
2023-01-17T20:13:42.689Z,4.00
2023-01-17T20:16:11.795Z,4.23
2023-01-17T20:18:38.816Z,3.40
2023-01-17T20:21:12.322Z,3.00
2023-01-17T20:23:46.820Z,3.17
2023-01-17T20:26:25.655Z,2.30
2023-01-17T20:28:53.434Z,3.73
2023-01-17T20:31:25.631Z,4.20
2023-01-17T20:33:54.427Z,4.30
2023-01-17T20:36:24.591Z,3.53
2023-01-17T20:38:51.688Z,3.50
2023-01-17T20:41:20.601Z,2.93
2023-01-17T20:43:51.594Z,2.80
2023-01-17T20:46:20.112Z,3.03
2023-01-17T20:48:49.226Z,2.70
2023-01-17T20:51:16.658Z,3.20
2023-01-17T20:53:46.800Z,3.03
2023-01-17T20:56:15.618Z,2.63
2023-01-17T20:58:42.735Z,2.93
2023-01-17T21:01:11.691Z,3.57
2023-01-17T21:03:39.931Z,3.00
2023-01-17T21:06:11.552Z,3.57
2023-01-17T21:08:40.422Z,4.40
2023-01-17T21:11:09.509Z,2.90
2023-01-17T21:13:36.438Z,3.93
2023-01-17T21:16:03.644Z,4.17
2023-01-17T21:18:34.187Z,3.70
2023-01-17T21:21:07.388Z,3.20
2023-01-17T21:23:38.516Z,2.80
2023-01-17T21:26:05.982Z,3.10
2023-01-17T21:28:38.145Z,3.67
2023-01-17T21:31:23.174Z,3.33
2023-01-17T21:33:55.661Z,2.87
2023-01-17T21:36:24.786Z,3.13
2023-01-17T21:38:54.598Z,3.07
2023-01-17T21:41:25.155Z,4.10
2023-01-17T21:43:57.132Z,3.30
2023-01-17T21:46:24.503Z,2.90
2023-01-17T21:48:51.463Z,3.00
2023-01-17T21:51:19.766Z,2.93
2023-01-17T21:53:46.594Z,2.50
2023-01-17T21:56:32.980Z,3.07
2023-01-17T21:59:00.087Z,3.23
2023-01-17T22:01:29.600Z,2.80
2023-01-17T22:04:03.718Z,2.87
2023-01-17T22:06:34.595Z,3.17
2023-01-17T22:09:01.860Z,3.00
2023-01-17T22:11:30.468Z,2.63
2023-01-17T22:13:59.201Z,2.87
2023-01-17T22:16:26.696Z,1.87
2023-01-17T22:18:53.808Z,3.20
2023-01-17T22:21:29.522Z,2.60
2023-01-17T22:23:58.810Z,2.70
2023-01-17T22:26:28.341Z,3.03
2023-01-17T22:28:55.738Z,2.10
2023-01-17T22:31:24.921Z,2.13
2023-01-17T22:33:54.860Z,3.03
2023-01-17T22:36:22.102Z,2.67
2023-01-17T22:38:49.529Z,2.30
2023-01-17T22:41:20.157Z,2.23
2023-01-17T22:43:52.089Z,2.70
2023-01-17T22:46:24.994Z,2.37
2023-01-17T22:48:53.920Z,2.37
2023-01-17T22:51:22.271Z,2.40
2023-01-17T22:53:55.559Z,2.57
2023-01-17T22:56:26.531Z,2.60
2023-01-17T22:58:53.660Z,2.70
2023-01-17T23:01:26.656Z,2.30
2023-01-17T23:03:57.616Z,2.70
2023-01-17T23:06:28.066Z,2.47
2023-01-17T23:08:57.407Z,2.80
2023-01-17T23:11:41.104Z,2.30
2023-01-17T23:14:19.232Z,2.20
2023-01-17T23:17:18.932Z,2.70
2023-01-17T23:19:54.518Z,3.53
2023-01-17T23:22:22.740Z,2.73
2023-01-17T23:24:54.657Z,2.20
2023-01-17T23:27:54.853Z,2.40
2023-01-17T23:30:34.520Z,2.00
2023-01-17T23:33:05.455Z,2.07
2023-01-17T23:35:38.001Z,2.00
2023-01-17T23:38:31.321Z,2.07
2023-01-17T23:41:21.782Z,1.80
2023-01-17T23:43:55.740Z,1.90
2023-01-17T23:46:23.128Z,2.20
2023-01-17T23:48:49.992Z,2.00
2023-01-17T23:51:17.048Z,1.60
2023-01-17T23:53:46.268Z,2.60
2023-01-17T23:56:16.900Z,1.77
2023-01-17T23:58:43.879Z,1.83
